sensor_id;sensor_type;location;lat;lon;timestamp;P1;durP1;ratioP1;P2;durP2;ratioP2
18322;SDS011;9287;49.456;11.064;2024-01-30T00:00:53;11.20;;;7.37;;
18322;SDS011;9287;49.456;11.064;2024-01-30T00:03:21;12.27;;;8.17;;
18322;SDS011;9287;49.456;11.064;2024-01-30T00:05:48;14.57;;;7.53;;
18322;SDS011;9287;49.456;11.064;2024-01-30T00:08:17;12.07;;;7.67;;
18322;SDS011;9287;49.456;11.064;2024-01-30T00:10:45;10.90;;;7.37;;
18322;SDS011;9287;49.456;11.064;2024-01-30T00:13:14;12.57;;;8.50;;
18322;SDS011;9287;49.456;11.064;2024-01-30T00:15:44;11.87;;;7.10;;
18322;SDS011;9287;49.456;11.064;2024-01-30T00:18:11;10.43;;;7.80;;
18322;SDS011;9287;49.456;11.064;2024-01-30T00:20:40;12.90;;;8.13;;
18322;SDS011;9287;49.456;11.064;2024-01-30T00:23:09;13.07;;;7.60;;
18322;SDS011;9287;49.456;11.064;2024-01-30T00:25:36;12.57;;;8.17;;
18322;SDS011;9287;49.456;11.064;2024-01-30T00:28:04;9.93;;;7.13;;
18322;SDS011;9287;49.456;11.064;2024-01-30T00:30:34;12.20;;;7.70;;
18322;SDS011;9287;49.456;11.064;2024-01-30T00:33:02;13.80;;;7.50;;
18322;SDS011;9287;49.456;11.064;2024-01-30T00:35:30;13.20;;;8.30;;
18322;SDS011;9287;49.456;11.064;2024-01-30T00:37:58;13.03;;;8.10;;
18322;SDS011;9287;49.456;11.064;2024-01-30T00:40:27;14.63;;;8.17;;
18322;SDS011;9287;49.456;11.064;2024-01-30T00:42:55;9.70;;;7.83;;
18322;SDS011;9287;49.456;11.064;2024-01-30T00:45:23;12.70;;;7.77;;
18322;SDS011;9287;49.456;11.064;2024-01-30T00:47:52;13.70;;;8.20;;
18322;SDS011;9287;49.456;11.064;2024-01-30T00:50:20;14.10;;;8.30;;
18322;SDS011;9287;49.456;11.064;2024-01-30T00:52:47;10.23;;;7.83;;
18322;SDS011;9287;49.456;11.064;2024-01-30T00:55:15;13.73;;;7.87;;
18322;SDS011;9287;49.456;11.064;2024-01-30T00:57:43;10.93;;;7.70;;
18322;SDS011;9287;49.456;11.064;2024-01-30T01:00:12;12.23;;;6.93;;
18322;SDS011;9287;49.456;11.064;2024-01-30T01:02:43;12.00;;;7.73;;
18322;SDS011;9287;49.456;11.064;2024-01-30T01:05:13;9.30;;;6.30;;
18322;SDS011;9287;49.456;11.064;2024-01-30T01:07:41;10.20;;;6.80;;
18322;SDS011;9287;49.456;11.064;2024-01-30T01:10:10;10.20;;;6.63;;
18322;SDS011;9287;49.456;11.064;2024-01-30T01:12:40;12.67;;;6.63;;
18322;SDS011;9287;49.456;11.064;2024-01-30T01:15:08;13.80;;;6.47;;
18322;SDS011;9287;49.456;11.064;2024-01-30T01:17:36;10.63;;;5.87;;
18322;SDS011;9287;49.456;11.064;2024-01-30T01:20:05;7.87;;;6.10;;
18322;SDS011;9287;49.456;11.064;2024-01-30T01:22:35;7.93;;;6.10;;
18322;SDS011;9287;49.456;11.064;2024-01-30T01:25:05;9.47;;;5.63;;
18322;SDS011;9287;49.456;11.064;2024-01-30T01:27:34;7.60;;;6.00;;
18322;SDS011;9287;49.456;11.064;2024-01-30T01:30:08;8.10;;;5.13;;
18322;SDS011;9287;49.456;11.064;2024-01-30T01:32:38;9.93;;;6.67;;
18322;SDS011;9287;49.456;11.064;2024-01-30T01:35:11;7.87;;;5.53;;
18322;SDS011;9287;49.456;11.064;2024-01-30T01:37:41;7.77;;;5.47;;
18322;SDS011;9287;49.456;11.064;2024-01-30T01:40:09;8.80;;;5.53;;
18322;SDS011;9287;49.456;11.064;2024-01-30T01:42:37;8.43;;;5.17;;
18322;SDS011;9287;49.456;11.064;2024-01-30T01:45:06;9.00;;;5.67;;
18322;SDS011;9287;49.456;11.064;2024-01-30T01:47:35;8.43;;;5.47;;
18322;SDS011;9287;49.456;11.064;2024-01-30T01:50:03;8.13;;;5.57;;
18322;SDS011;9287;49.456;11.064;2024-01-30T01:52:32;9.07;;;5.27;;
18322;SDS011;9287;49.456;11.064;2024-01-30T01:55:01;9.77;;;5.90;;
18322;SDS011;9287;49.456;11.064;2024-01-30T01:57:30;8.27;;;5.70;;
18322;SDS011;9287;49.456;11.064;2024-01-30T01:59:58;8.73;;;5.70;;
18322;SDS011;9287;49.456;11.064;2024-01-30T02:02:27;7.93;;;5.40;;
18322;SDS011;9287;49.456;11.064;2024-01-30T02:04:57;8.63;;;5.70;;
18322;SDS011;9287;49.456;11.064;2024-01-30T02:07:26;9.53;;;5.13;;
18322;SDS011;9287;49.456;11.064;2024-01-30T02:09:55;8.17;;;5.17;;
18322;SDS011;9287;49.456;11.064;2024-01-30T02:12:25;6.77;;;5.03;;
18322;SDS011;9287;49.456;11.064;2024-01-30T02:14:53;8.83;;;5.37;;
18322;SDS011;9287;49.456;11.064;2024-01-30T02:17:21;7.60;;;5.07;;
18322;SDS011;9287;49.456;11.064;2024-01-30T02:19:51;7.63;;;4.90;;
18322;SDS011;9287;49.456;11.064;2024-01-30T02:22:21;7.43;;;5.00;;
18322;SDS011;9287;49.456;11.064;2024-01-30T02:24:49;7.43;;;5.17;;
18322;SDS011;9287;49.456;11.064;2024-01-30T02:27:17;6.90;;;4.70;;
18322;SDS011;9287;49.456;11.064;2024-01-30T02:29:45;6.30;;;4.87;;
18322;SDS011;9287;49.456;11.064;2024-01-30T02:32:13;7.40;;;4.93;;
18322;SDS011;9287;49.456;11.064;2024-01-30T02:34:41;7.93;;;4.67;;
18322;SDS011;9287;49.456;11.064;2024-01-30T02:37:09;14.00;;;4.93;;
18322;SDS011;9287;49.456;11.064;2024-01-30T02:39:39;6.93;;;5.07;;
18322;SDS011;9287;49.456;11.064;2024-01-30T02:42:07;10.33;;;5.40;;
18322;SDS011;9287;49.456;11.064;2024-01-30T02:44:34;6.70;;;5.27;;
18322;SDS011;9287;49.456;11.064;2024-01-30T02:47:02;8.43;;;4.80;;
18322;SDS011;9287;49.456;11.064;2024-01-30T02:49:30;7.60;;;4.63;;
18322;SDS011;9287;49.456;11.064;2024-01-30T02:51:58;5.33;;;4.63;;
18322;SDS011;9287;49.456;11.064;2024-01-30T02:54:26;7.30;;;5.00;;
18322;SDS011;9287;49.456;11.064;2024-01-30T02:56:55;7.93;;;5.27;;
18322;SDS011;9287;49.456;11.064;2024-01-30T02:59:23;6.67;;;4.57;;
18322;SDS011;9287;49.456;11.064;2024-01-30T03:01:51;6.40;;;5.43;;
18322;SDS011;9287;49.456;11.064;2024-01-30T03:04:19;9.07;;;5.07;;
18322;SDS011;9287;49.456;11.064;2024-01-30T03:06:47;8.20;;;4.93;;
18322;SDS011;9287;49.456;11.064;2024-01-30T03:09:15;8.80;;;4.47;;
18322;SDS011;9287;49.456;11.064;2024-01-30T03:11:44;6.13;;;4.50;;
18322;SDS011;9287;49.456;11.064;2024-01-30T03:14:14;7.93;;;4.73;;
18322;SDS011;9287;49.456;11.064;2024-01-30T03:16:42;8.17;;;4.63;;
18322;SDS011;9287;49.456;11.064;2024-01-30T03:19:10;8.57;;;5.30;;
18322;SDS011;9287;49.456;11.064;2024-01-30T03:21:37;5.50;;;4.80;;
18322;SDS011;9287;49.456;11.064;2024-01-30T03:24:05;7.13;;;6.00;;
18322;SDS011;9287;49.456;11.064;2024-01-30T03:26:33;7.37;;;4.97;;
18322;SDS011;9287;49.456;11.064;2024-01-30T03:29:01;5.60;;;4.83;;
18322;SDS011;9287;49.456;11.064;2024-01-30T03:31:30;6.67;;;4.80;;
18322;SDS011;9287;49.456;11.064;2024-01-30T03:33:58;6.27;;;5.50;;
18322;SDS011;9287;49.456;11.064;2024-01-30T03:36:26;7.30;;;5.53;;
18322;SDS011;9287;49.456;11.064;2024-01-30T03:38:54;10.30;;;5.30;;
18322;SDS011;9287;49.456;11.064;2024-01-30T03:41:22;5.77;;;4.93;;
18322;SDS011;9287;49.456;11.064;2024-01-30T03:43:50;8.23;;;5.57;;
18322;SDS011;9287;49.456;11.064;2024-01-30T03:46:18;6.60;;;5.03;;
18322;SDS011;9287;49.456;11.064;2024-01-30T03:48:48;8.37;;;5.37;;
18322;SDS011;9287;49.456;11.064;2024-01-30T03:51:16;7.57;;;5.07;;
18322;SDS011;9287;49.456;11.064;2024-01-30T03:53:44;7.73;;;5.33;;
18322;SDS011;9287;49.456;11.064;2024-01-30T03:56:12;8.73;;;6.13;;
18322;SDS011;9287;49.456;11.064;2024-01-30T03:58:40;7.57;;;5.17;;
18322;SDS011;9287;49.456;11.064;2024-01-30T04:01:12;7.17;;;5.00;;
18322;SDS011;9287;49.456;11.064;2024-01-30T04:03:41;7.57;;;5.50;;
18322;SDS011;9287;49.456;11.064;2024-01-30T04:06:12;8.43;;;6.03;;
18322;SDS011;9287;49.456;11.064;2024-01-30T04:08:39;9.80;;;6.17;;
18322;SDS011;9287;49.456;11.064;2024-01-30T04:11:07;6.40;;;5.80;;
18322;SDS011;9287;49.456;11.064;2024-01-30T04:13:35;8.23;;;6.03;;
18322;SDS011;9287;49.456;11.064;2024-01-30T04:16:03;10.10;;;5.53;;
18322;SDS011;9287;49.456;11.064;2024-01-30T04:18:32;7.43;;;6.00;;
18322;SDS011;9287;49.456;11.064;2024-01-30T04:21:00;8.03;;;5.73;;
18322;SDS011;9287;49.456;11.064;2024-01-30T04:23:30;9.07;;;6.57;;
18322;SDS011;9287;49.456;11.064;2024-01-30T04:25:57;8.80;;;6.40;;
18322;SDS011;9287;49.456;11.064;2024-01-30T04:28:25;7.97;;;5.63;;
18322;SDS011;9287;49.456;11.064;2024-01-30T04:30:53;9.03;;;5.80;;
18322;SDS011;9287;49.456;11.064;2024-01-30T04:33:25;8.63;;;5.73;;
18322;SDS011;9287;49.456;11.064;2024-01-30T04:35:55;10.07;;;6.23;;
18322;SDS011;9287;49.456;11.064;2024-01-30T04:38:23;9.57;;;6.07;;
18322;SDS011;9287;49.456;11.064;2024-01-30T04:40:52;6.23;;;5.53;;
18322;SDS011;9287;49.456;11.064;2024-01-30T04:43:22;6.27;;;5.27;;
18322;SDS011;9287;49.456;11.064;2024-01-30T04:45:52;6.03;;;5.30;;
18322;SDS011;9287;49.456;11.064;2024-01-30T04:48:20;9.67;;;6.03;;
18322;SDS011;9287;49.456;11.064;2024-01-30T04:50:50;7.57;;;5.77;;
18322;SDS011;9287;49.456;11.064;2024-01-30T04:53:17;9.70;;;6.33;;
18322;SDS011;9287;49.456;11.064;2024-01-30T04:55:45;5.83;;;5.23;;
18322;SDS011;9287;49.456;11.064;2024-01-30T04:58:15;8.03;;;5.80;;
18322;SDS011;9287;49.456;11.064;2024-01-30T05:00:43;10.57;;;6.37;;
18322;SDS011;9287;49.456;11.064;2024-01-30T05:03:12;10.60;;;7.17;;
18322;SDS011;9287;49.456;11.064;2024-01-30T05:05:40;9.07;;;6.37;;
18322;SDS011;9287;49.456;11.064;2024-01-30T05:08:08;6.50;;;5.53;;
18322;SDS011;9287;49.456;11.064;2024-01-30T05:10:36;7.53;;;5.80;;
18322;SDS011;9287;49.456;11.064;2024-01-30T05:13:04;9.67;;;6.63;;
18322;SDS011;9287;49.456;11.064;2024-01-30T05:15:34;8.53;;;6.03;;
18322;SDS011;9287;49.456;11.064;2024-01-30T05:18:02;9.13;;;7.03;;
18322;SDS011;9287;49.456;11.064;2024-01-30T05:20:30;6.70;;;5.77;;
18322;SDS011;9287;49.456;11.064;2024-01-30T05:22:58;8.90;;;6.10;;
18322;SDS011;9287;49.456;11.064;2024-01-30T05:25:26;11.17;;;6.60;;
18322;SDS011;9287;49.456;11.064;2024-01-30T05:27:53;6.73;;;5.80;;
18322;SDS011;9287;49.456;11.064;2024-01-30T05:30:22;8.90;;;5.53;;
18322;SDS011;9287;49.456;11.064;2024-01-30T05:32:51;7.73;;;5.77;;
18322;SDS011;9287;49.456;11.064;2024-01-30T05:35:19;6.33;;;5.47;;
18322;SDS011;9287;49.456;11.064;2024-01-30T05:37:48;8.63;;;5.67;;
18322;SDS011;9287;49.456;11.064;2024-01-30T05:40:16;6.80;;;5.27;;
18322;SDS011;9287;49.456;11.064;2024-01-30T05:42:45;7.77;;;5.53;;
18322;SDS011;9287;49.456;11.064;2024-01-30T05:45:13;11.20;;;6.60;;
18322;SDS011;9287;49.456;11.064;2024-01-30T05:47:40;7.77;;;6.53;;
18322;SDS011;9287;49.456;11.064;2024-01-30T05:50:10;10.53;;;6.37;;
18322;SDS011;9287;49.456;11.064;2024-01-30T05:52:38;7.67;;;6.00;;
18322;SDS011;9287;49.456;11.064;2024-01-30T05:55:06;9.93;;;6.67;;
18322;SDS011;9287;49.456;11.064;2024-01-30T05:57:39;12.03;;;6.63;;
18322;SDS011;9287;49.456;11.064;2024-01-30T06:00:07;8.80;;;6.93;;
18322;SDS011;9287;49.456;11.064;2024-01-30T06:02:35;10.83;;;6.57;;
18322;SDS011;9287;49.456;11.064;2024-01-30T06:05:04;10.03;;;7.20;;
18322;SDS011;9287;49.456;11.064;2024-01-30T06:07:33;9.23;;;7.00;;
18322;SDS011;9287;49.456;11.064;2024-01-30T06:10:03;10.83;;;7.43;;
18322;SDS011;9287;49.456;11.064;2024-01-30T06:12:31;11.40;;;7.93;;
18322;SDS011;9287;49.456;11.064;2024-01-30T06:14:59;11.67;;;8.00;;
18322;SDS011;9287;49.456;11.064;2024-01-30T06:17:27;9.57;;;7.60;;
18322;SDS011;9287;49.456;11.064;2024-01-30T06:19:55;11.77;;;8.30;;
18322;SDS011;9287;49.456;11.064;2024-01-30T06:22:23;13.50;;;8.20;;
18322;SDS011;9287;49.456;11.064;2024-01-30T06:24:52;11.70;;;8.30;;
18322;SDS011;9287;49.456;11.064;2024-01-30T06:27:20;11.30;;;8.10;;
18322;SDS011;9287;49.456;11.064;2024-01-30T06:29:48;11.83;;;7.73;;
18322;SDS011;9287;49.456;11.064;2024-01-30T06:32:16;10.00;;;7.43;;
18322;SDS011;9287;49.456;11.064;2024-01-30T06:34:44;11.77;;;8.13;;
18322;SDS011;9287;49.456;11.064;2024-01-30T06:37:13;11.27;;;8.23;;
18322;SDS011;9287;49.456;11.064;2024-01-30T06:39:40;12.47;;;8.00;;
18322;SDS011;9287;49.456;11.064;2024-01-30T06:42:10;12.57;;;8.90;;
18322;SDS011;9287;49.456;11.064;2024-01-30T06:44:38;13.63;;;8.17;;
18322;SDS011;9287;49.456;11.064;2024-01-30T06:47:06;14.50;;;8.00;;
18322;SDS011;9287;49.456;11.064;2024-01-30T06:49:34;10.77;;;8.17;;
18322;SDS011;9287;49.456;11.064;2024-01-30T06:52:04;14.43;;;9.37;;
18322;SDS011;9287;49.456;11.064;2024-01-30T06:54:33;16.07;;;8.33;;
18322;SDS011;9287;49.456;11.064;2024-01-30T06:57:01;12.70;;;8.53;;
18322;SDS011;9287;49.456;11.064;2024-01-30T06:59:31;16.53;;;9.13;;
18322;SDS011;9287;49.456;11.064;2024-01-30T07:01:58;18.43;;;8.97;;
18322;SDS011;9287;49.456;11.064;2024-01-30T07:04:27;12.83;;;8.60;;
18322;SDS011;9287;49.456;11.064;2024-01-30T07:06:55;13.73;;;8.73;;
18322;SDS011;9287;49.456;11.064;2024-01-30T07:09:24;13.97;;;8.83;;
18322;SDS011;9287;49.456;11.064;2024-01-30T07:11:52;15.93;;;9.37;;
18322;SDS011;9287;49.456;11.064;2024-01-30T07:14:21;13.80;;;9.50;;
18322;SDS011;9287;49.456;11.064;2024-01-30T07:16:51;14.73;;;8.73;;
18322;SDS011;9287;49.456;11.064;2024-01-30T07:19:18;13.17;;;9.40;;
18322;SDS011;9287;49.456;11.064;2024-01-30T07:21:47;17.77;;;10.40;;
18322;SDS011;9287;49.456;11.064;2024-01-30T07:24:14;15.00;;;8.90;;
18322;SDS011;9287;49.456;11.064;2024-01-30T07:26:42;12.10;;;9.40;;
18322;SDS011;9287;49.456;11.064;2024-01-30T07:29:10;15.93;;;10.70;;
18322;SDS011;9287;49.456;11.064;2024-01-30T07:31:38;18.43;;;9.83;;
18322;SDS011;9287;49.456;11.064;2024-01-30T07:34:08;13.07;;;10.07;;
18322;SDS011;9287;49.456;11.064;2024-01-30T07:36:37;16.00;;;10.43;;
18322;SDS011;9287;49.456;11.064;2024-01-30T07:39:05;18.83;;;10.37;;
18322;SDS011;9287;49.456;11.064;2024-01-30T07:41:33;15.07;;;10.40;;
18322;SDS011;9287;49.456;11.064;2024-01-30T07:44:01;17.23;;;10.37;;
18322;SDS011;9287;49.456;11.064;2024-01-30T07:46:30;13.20;;;10.17;;
18322;SDS011;9287;49.456;11.064;2024-01-30T07:48:58;18.30;;;10.73;;
18322;SDS011;9287;49.456;11.064;2024-01-30T07:51:28;20.53;;;10.83;;
18322;SDS011;9287;49.456;11.064;2024-01-30T07:53:58;14.93;;;11.53;;
18322;SDS011;9287;49.456;11.064;2024-01-30T07:56:26;17.17;;;11.77;;
18322;SDS011;9287;49.456;11.064;2024-01-30T07:58:54;15.30;;;10.47;;
18322;SDS011;9287;49.456;11.064;2024-01-30T08:01:22;16.10;;;11.13;;
18322;SDS011;9287;49.456;11.064;2024-01-30T08:03:50;14.90;;;11.63;;
18322;SDS011;9287;49.456;11.064;2024-01-30T08:06:18;20.33;;;13.07;;
18322;SDS011;9287;49.456;11.064;2024-01-30T08:08:50;15.90;;;12.70;;
18322;SDS011;9287;49.456;11.064;2024-01-30T08:11:19;17.97;;;12.90;;
18322;SDS011;9287;49.456;11.064;2024-01-30T08:13:51;15.10;;;11.87;;
18322;SDS011;9287;49.456;11.064;2024-01-30T08:16:19;20.43;;;13.17;;
18322;SDS011;9287;49.456;11.064;2024-01-30T08:18:47;17.20;;;12.43;;
18322;SDS011;9287;49.456;11.064;2024-01-30T08:21:15;18.50;;;13.70;;
18322;SDS011;9287;49.456;11.064;2024-01-30T08:23:44;16.17;;;12.73;;
18322;SDS011;9287;49.456;11.064;2024-01-30T08:26:13;18.70;;;13.00;;
18322;SDS011;9287;49.456;11.064;2024-01-30T08:28:41;20.33;;;11.67;;
18322;SDS011;9287;49.456;11.064;2024-01-30T08:31:10;16.77;;;11.70;;
18322;SDS011;9287;49.456;11.064;2024-01-30T08:33:38;16.37;;;11.67;;
18322;SDS011;9287;49.456;11.064;2024-01-30T08:36:08;14.63;;;10.87;;
18322;SDS011;9287;49.456;11.064;2024-01-30T08:38:36;17.20;;;11.60;;
18322;SDS011;9287;49.456;11.064;2024-01-30T08:41:04;17.03;;;11.53;;
18322;SDS011;9287;49.456;11.064;2024-01-30T08:43:34;16.87;;;11.47;;
18322;SDS011;9287;49.456;11.064;2024-01-30T08:46:03;16.23;;;11.80;;
18322;SDS011;9287;49.456;11.064;2024-01-30T08:48:31;20.93;;;12.30;;
18322;SDS011;9287;49.456;11.064;2024-01-30T08:50:59;16.37;;;12.30;;
18322;SDS011;9287;49.456;11.064;2024-01-30T08:53:27;16.23;;;11.23;;
18322;SDS011;9287;49.456;11.064;2024-01-30T08:55:56;15.40;;;11.30;;
18322;SDS011;9287;49.456;11.064;2024-01-30T08:58:25;18.50;;;12.00;;
18322;SDS011;9287;49.456;11.064;2024-01-30T09:00:54;16.43;;;12.23;;
18322;SDS011;9287;49.456;11.064;2024-01-30T09:03:22;18.30;;;12.30;;
18322;SDS011;9287;49.456;11.064;2024-01-30T09:05:50;26.13;;;12.87;;
18322;SDS011;9287;49.456;11.064;2024-01-30T09:08:18;19.60;;;12.50;;
18322;SDS011;9287;49.456;11.064;2024-01-30T09:10:46;19.37;;;12.73;;
18322;SDS011;9287;49.456;11.064;2024-01-30T09:13:14;23.33;;;12.20;;
18322;SDS011;9287;49.456;11.064;2024-01-30T09:15:42;16.87;;;12.47;;
18322;SDS011;9287;49.456;11.064;2024-01-30T09:18:12;16.60;;;12.37;;
18322;SDS011;9287;49.456;11.064;2024-01-30T09:20:40;14.23;;;11.60;;
18322;SDS011;9287;49.456;11.064;2024-01-30T09:23:08;18.53;;;12.63;;
18322;SDS011;9287;49.456;11.064;2024-01-30T09:25:35;22.37;;;12.83;;
18322;SDS011;9287;49.456;11.064;2024-01-30T09:28:04;19.97;;;12.50;;
18322;SDS011;9287;49.456;11.064;2024-01-30T09:30:32;13.33;;;11.93;;
18322;SDS011;9287;49.456;11.064;2024-01-30T09:33:00;18.60;;;12.20;;
18322;SDS011;9287;49.456;11.064;2024-01-30T09:35:30;16.07;;;11.37;;
18322;SDS011;9287;49.456;11.064;2024-01-30T09:37:58;15.17;;;11.33;;
18322;SDS011;9287;49.456;11.064;2024-01-30T09:40:26;13.30;;;11.00;;
18322;SDS011;9287;49.456;11.064;2024-01-30T09:42:55;15.53;;;11.13;;
18322;SDS011;9287;49.456;11.064;2024-01-30T09:45:23;15.97;;;11.37;;
18322;SDS011;9287;49.456;11.064;2024-01-30T09:47:53;16.00;;;11.23;;
18322;SDS011;9287;49.456;11.064;2024-01-30T09:50:21;15.43;;;11.40;;
18322;SDS011;9287;49.456;11.064;2024-01-30T09:52:50;14.57;;;11.07;;
18322;SDS011;9287;49.456;11.064;2024-01-30T09:55:20;14.37;;;11.73;;
18322;SDS011;9287;49.456;11.064;2024-01-30T09:57:48;17.77;;;11.77;;
18322;SDS011;9287;49.456;11.064;2024-01-30T10:00:16;14.00;;;11.80;;
18322;SDS011;9287;49.456;11.064;2024-01-30T10:02:44;17.90;;;11.37;;
18322;SDS011;9287;49.456;11.064;2024-01-30T10:05:13;18.60;;;11.00;;
18322;SDS011;9287;49.456;11.064;2024-01-30T10:07:52;16.13;;;11.07;;
18322;SDS011;9287;49.456;11.064;2024-01-30T10:10:21;13.40;;;10.57;;
18322;SDS011;9287;49.456;11.064;2024-01-30T10:12:50;23.43;;;11.33;;
18322;SDS011;9287;49.456;11.064;2024-01-30T10:15:19;13.97;;;10.90;;
18322;SDS011;9287;49.456;11.064;2024-01-30T10:17:47;22.70;;;11.53;;
18322;SDS011;9287;49.456;11.064;2024-01-30T10:20:15;13.30;;;11.00;;
18322;SDS011;9287;49.456;11.064;2024-01-30T10:22:44;16.83;;;11.27;;
18322;SDS011;9287;49.456;11.064;2024-01-30T10:25:15;17.13;;;11.70;;
18322;SDS011;9287;49.456;11.064;2024-01-30T10:27:44;13.97;;;10.93;;
18322;SDS011;9287;49.456;11.064;2024-01-30T10:30:12;14.03;;;11.33;;
18322;SDS011;9287;49.456;11.064;2024-01-30T10:32:42;12.40;;;10.77;;
18322;SDS011;9287;49.456;11.064;2024-01-30T10:35:10;17.30;;;11.77;;
18322;SDS011;9287;49.456;11.064;2024-01-30T10:37:38;13.40;;;10.77;;
18322;SDS011;9287;49.456;11.064;2024-01-30T10:40:09;14.20;;;11.60;;
18322;SDS011;9287;49.456;11.064;2024-01-30T10:42:43;12.17;;;10.90;;
18322;SDS011;9287;49.456;11.064;2024-01-30T10:45:12;20.27;;;12.50;;
18322;SDS011;9287;49.456;11.064;2024-01-30T10:47:43;12.17;;;10.13;;
18322;SDS011;9287;49.456;11.064;2024-01-30T10:50:16;14.53;;;10.77;;
18322;SDS011;9287;49.456;11.064;2024-01-30T10:52:47;16.07;;;11.17;;
18322;SDS011;9287;49.456;11.064;2024-01-30T10:55:19;14.93;;;10.37;;
18322;SDS011;9287;49.456;11.064;2024-01-30T10:57:50;15.23;;;11.43;;
18322;SDS011;9287;49.456;11.064;2024-01-30T11:00:18;15.57;;;11.10;;
18322;SDS011;9287;49.456;11.064;2024-01-30T11:02:50;14.60;;;11.47;;
18322;SDS011;9287;49.456;11.064;2024-01-30T11:05:23;17.73;;;11.03;;
18322;SDS011;9287;49.456;11.064;2024-01-30T11:07:58;15.63;;;10.93;;
18322;SDS011;9287;49.456;11.064;2024-01-30T11:10:28;13.53;;;10.83;;
18322;SDS011;9287;49.456;11.064;2024-01-30T11:12:58;14.43;;;10.57;;
18322;SDS011;9287;49.456;11.064;2024-01-30T11:15:25;16.57;;;11.10;;
18322;SDS011;9287;49.456;11.064;2024-01-30T11:17:53;16.03;;;11.00;;
18322;SDS011;9287;49.456;11.064;2024-01-30T11:20:22;16.37;;;11.80;;
18322;SDS011;9287;49.456;11.064;2024-01-30T11:22:53;15.63;;;11.77;;
18322;SDS011;9287;49.456;11.064;2024-01-30T11:25:24;15.60;;;10.73;;
18322;SDS011;9287;49.456;11.064;2024-01-30T11:27:54;13.20;;;10.37;;
18322;SDS011;9287;49.456;11.064;2024-01-30T11:30:23;17.33;;;10.80;;
18322;SDS011;9287;49.456;11.064;2024-01-30T11:33:01;14.30;;;10.77;;
18322;SDS011;9287;49.456;11.064;2024-01-30T11:35:32;14.00;;;11.07;;
18322;SDS011;9287;49.456;11.064;2024-01-30T11:38:02;13.30;;;10.40;;
18322;SDS011;9287;49.456;11.064;2024-01-30T11:40:31;13.40;;;10.10;;
18322;SDS011;9287;49.456;11.064;2024-01-30T11:43:03;14.73;;;10.10;;
18322;SDS011;9287;49.456;11.064;2024-01-30T11:45:32;12.43;;;10.60;;
18322;SDS011;9287;49.456;11.064;2024-01-30T11:48:01;12.73;;;10.23;;
18322;SDS011;9287;49.456;11.064;2024-01-30T11:50:33;12.93;;;9.93;;
18322;SDS011;9287;49.456;11.064;2024-01-30T11:53:04;15.63;;;9.80;;
18322;SDS011;9287;49.456;11.064;2024-01-30T11:55:33;17.40;;;10.77;;
18322;SDS011;9287;49.456;11.064;2024-01-30T11:58:04;14.03;;;9.87;;
18322;SDS011;9287;49.456;11.064;2024-01-30T12:00:32;12.40;;;9.17;;
18322;SDS011;9287;49.456;11.064;2024-01-30T12:03:01;12.97;;;9.27;;
18322;SDS011;9287;49.456;11.064;2024-01-30T12:05:31;11.37;;;9.57;;
18322;SDS011;9287;49.456;11.064;2024-01-30T12:07:59;11.40;;;9.33;;
18322;SDS011;9287;49.456;11.064;2024-01-30T12:10:29;12.23;;;9.90;;
18322;SDS011;9287;49.456;11.064;2024-01-30T12:12:57;12.60;;;9.30;;
18322;SDS011;9287;49.456;11.064;2024-01-30T12:15:27;14.07;;;9.00;;
18322;SDS011;9287;49.456;11.064;2024-01-30T12:18:03;12.90;;;9.07;;
18322;SDS011;9287;49.456;11.064;2024-01-30T12:20:33;9.93;;;7.87;;
18322;SDS011;9287;49.456;11.064;2024-01-30T12:23:01;12.50;;;8.73;;
18322;SDS011;9287;49.456;11.064;2024-01-30T12:25:29;11.47;;;8.33;;
18322;SDS011;9287;49.456;11.064;2024-01-30T12:27:57;13.80;;;8.93;;
18322;SDS011;9287;49.456;11.064;2024-01-30T12:30:27;9.87;;;8.73;;
18322;SDS011;9287;49.456;11.064;2024-01-30T12:32:56;12.20;;;7.90;;
18322;SDS011;9287;49.456;11.064;2024-01-30T12:35:24;10.43;;;7.93;;
18322;SDS011;9287;49.456;11.064;2024-01-30T12:37:58;12.47;;;9.00;;
18322;SDS011;9287;49.456;11.064;2024-01-30T12:40:26;10.13;;;8.77;;
18322;SDS011;9287;49.456;11.064;2024-01-30T12:42:55;10.93;;;8.20;;
18322;SDS011;9287;49.456;11.064;2024-01-30T12:45:23;11.13;;;8.20;;
18322;SDS011;9287;49.456;11.064;2024-01-30T12:47:55;11.63;;;7.73;;
18322;SDS011;9287;49.456;11.064;2024-01-30T12:50:24;9.87;;;8.50;;
18322;SDS011;9287;49.456;11.064;2024-01-30T12:52:52;10.50;;;7.83;;
18322;SDS011;9287;49.456;11.064;2024-01-30T12:55:20;11.23;;;7.90;;
18322;SDS011;9287;49.456;11.064;2024-01-30T12:57:48;11.87;;;7.80;;
18322;SDS011;9287;49.456;11.064;2024-01-30T13:00:16;11.50;;;8.10;;
18322;SDS011;9287;49.456;11.064;2024-01-30T13:02:44;10.03;;;8.07;;
18322;SDS011;9287;49.456;11.064;2024-01-30T13:05:14;9.40;;;7.53;;
18322;SDS011;9287;49.456;11.064;2024-01-30T13:07:42;10.80;;;8.50;;
18322;SDS011;9287;49.456;11.064;2024-01-30T13:10:10;10.63;;;8.27;;
18322;SDS011;9287;49.456;11.064;2024-01-30T13:12:38;11.67;;;8.83;;
18322;SDS011;9287;49.456;11.064;2024-01-30T13:15:06;11.53;;;8.57;;
18322;SDS011;9287;49.456;11.064;2024-01-30T13:17:37;10.97;;;8.30;;
18322;SDS011;9287;49.456;11.064;2024-01-30T13:20:06;10.90;;;8.33;;
18322;SDS011;9287;49.456;11.064;2024-01-30T13:22:39;10.77;;;8.60;;
18322;SDS011;9287;49.456;11.064;2024-01-30T13:25:07;12.17;;;7.97;;
18322;SDS011;9287;49.456;11.064;2024-01-30T13:27:35;10.00;;;8.03;;
18322;SDS011;9287;49.456;11.064;2024-01-30T13:30:06;11.57;;;8.40;;
18322;SDS011;9287;49.456;11.064;2024-01-30T13:32:36;13.10;;;9.57;;
18322;SDS011;9287;49.456;11.064;2024-01-30T13:35:04;15.50;;;8.40;;
18322;SDS011;9287;49.456;11.064;2024-01-30T13:37:32;11.87;;;8.60;;
18322;SDS011;9287;49.456;11.064;2024-01-30T13:40:02;13.33;;;9.53;;
18322;SDS011;9287;49.456;11.064;2024-01-30T13:42:37;12.47;;;8.67;;
18322;SDS011;9287;49.456;11.064;2024-01-30T13:45:05;11.40;;;9.10;;
18322;SDS011;9287;49.456;11.064;2024-01-30T13:47:36;11.53;;;8.47;;
18322;SDS011;9287;49.456;11.064;2024-01-30T13:50:04;9.43;;;8.43;;
18322;SDS011;9287;49.456;11.064;2024-01-30T13:52:34;10.27;;;9.27;;
18322;SDS011;9287;49.456;11.064;2024-01-30T13:55:11;17.70;;;9.77;;
18322;SDS011;9287;49.456;11.064;2024-01-30T13:57:39;13.87;;;9.80;;
18322;SDS011;9287;49.456;11.064;2024-01-30T14:00:08;14.27;;;9.10;;
18322;SDS011;9287;49.456;11.064;2024-01-30T14:02:37;18.53;;;9.37;;
18322;SDS011;9287;49.456;11.064;2024-01-30T14:05:05;11.50;;;9.00;;
18322;SDS011;9287;49.456;11.064;2024-01-30T14:07:35;13.80;;;9.77;;
18322;SDS011;9287;49.456;11.064;2024-01-30T14:10:05;12.57;;;9.70;;
18322;SDS011;9287;49.456;11.064;2024-01-30T14:12:39;10.37;;;9.37;;
18322;SDS011;9287;49.456;11.064;2024-01-30T14:15:07;11.63;;;9.33;;
18322;SDS011;9287;49.456;11.064;2024-01-30T14:17:52;12.13;;;9.10;;
18322;SDS011;9287;49.456;11.064;2024-01-30T14:20:20;12.10;;;9.30;;
18322;SDS011;9287;49.456;11.064;2024-01-30T14:22:51;9.60;;;8.43;;
18322;SDS011;9287;49.456;11.064;2024-01-30T14:25:25;13.40;;;10.17;;
18322;SDS011;9287;49.456;11.064;2024-01-30T14:27:54;10.80;;;9.50;;
18322;SDS011;9287;49.456;11.064;2024-01-30T14:30:22;12.73;;;8.87;;
18322;SDS011;9287;49.456;11.064;2024-01-30T14:32:51;12.43;;;9.07;;
18322;SDS011;9287;49.456;11.064;2024-01-30T14:35:19;12.60;;;9.37;;
18322;SDS011;9287;49.456;11.064;2024-01-30T14:37:47;11.23;;;8.97;;
18322;SDS011;9287;49.456;11.064;2024-01-30T14:40:16;14.10;;;9.07;;
18322;SDS011;9287;49.456;11.064;2024-01-30T14:42:45;11.07;;;8.93;;
18322;SDS011;9287;49.456;11.064;2024-01-30T14:45:15;11.23;;;9.10;;